This is the latest recevied weather packets stored in our database for station/object KD8ZLZ-13. If no packets are shown the sender has not sent any weather packets the latest 10 day(s).
| Time | Temp. | Humidity | Pressure | Rain* | Wind** | Luminosity | Snow |
|---|---|---|---|---|---|---|---|
| 1778166644 | 11.11° C | 46% | 1013.9 hPa | 0 mm | - | 603 W/m² | - |
| 1778166044 | 10.56° C | 46% | 1013.9 hPa | 0 mm | - | 335 W/m² | - |
| 1778165444 | 11.11° C | 44% | 1013.9 hPa | 0 mm | - | 416 W/m² | - |
| 1778164844 | 11.11° C | 45% | 1013.9 hPa | 0 mm | - | 682 W/m² | - |
| 1778164244 | 11.11° C | 44% | 1013.9 hPa | 0 mm | - | 627 W/m² | - |
| 1778163643 | 10.56° C | 46% | 1014.2 hPa | 0 mm | - | 592 W/m² | - |
| 1778163044 | 10.56° C | 45% | 1014.2 hPa | 0 mm | - | 555 W/m² | - |
| 1778162444 | 10.56° C | 47% | 1014.2 hPa | 0 mm | - | 519 W/m² | - |
| 1778161843 | 10° C | 47% | 1014.2 hPa | 0 mm | - | 482 W/m² | - |
| 1778161243 | 10° C | 48% | 1014.2 hPa | 0 mm | - | 445 W/m² | - |
| 1778160643 | 9.44° C | 50% | 1014.2 hPa | 0 mm | - | 410 W/m² | - |
| 1778160043 | 9.44° C | 51% | 1014.2 hPa | 0 mm | - | 375 W/m² | - |
| 1778159443 | 9.44° C | 51% | 1014.2 hPa | 0 mm | - | 338 W/m² | - |
| 1778158843 | 9.44° C | 51% | 1014.2 hPa | 0 mm | - | 301 W/m² | - |
| 1778158243 | 8.89° C | 51% | 1014.2 hPa | 0 mm | - | 269 W/m² | - |
| 1778157643 | 8.89° C | 53% | 1014.2 hPa | 0 mm | - | 236 W/m² | - |
| 1778157043 | 8.33° C | 55% | 1014.2 hPa | 0 mm | - | 195 W/m² | - |
| 1778156443 | 8.33° C | 57% | 1014.2 hPa | 0 mm | - | 159 W/m² | - |
| 1778155843 | 7.22° C | 64% | 1014.2 hPa | 0 mm | - | 93 W/m² | - |
| 1778155243 | 6.67° C | 69% | 1013.9 hPa | 0 mm | - | 76 W/m² | - |
| 1778154644 | 5.56° C | 76% | 1013.9 hPa | 0 mm | - | 58 W/m² | - |
| 1778154043 | 4.44° C | 80% | 1013.9 hPa | 0 mm | - | 58 W/m² | - |
| 1778153443 | 3.89° C | 80% | 1013.6 hPa | 0 mm | - | 40 W/m² | - |
| 1778152843 | 3.89° C | 85% | 1013.6 hPa | 0 mm | - | 37 W/m² | - |
| 1778152243 | 3.89° C | 85% | 1013.6 hPa | 0 mm | - | 31 W/m² | - |
* Rain latest hour (hover to see other rain measurements)
** Current wind speed in m/s (hover to see current wind gust speed)